createdAt,value
2018-01-07T00:12:27.059Z,99.99
2018-01-07T05:32:35.193Z,99.99
2018-01-07T05:33:33.715Z,99.99
2018-01-07T05:34:35.170Z,99.99
2018-01-07T05:35:34.150Z,99.99
2018-01-07T05:36:34.199Z,99.99
2018-01-07T05:37:34.710Z,99.99
2018-01-07T05:38:35.083Z,99.99
2018-01-07T05:39:33.560Z,99.99
2018-01-07T05:40:34.215Z,99.99
2018-01-07T05:41:34.036Z,99.99
2018-01-07T05:42:34.025Z,99.99
2018-01-07T05:43:35.064Z,99.99
2018-01-07T05:44:33.452Z,99.99
2018-01-07T05:45:33.946Z,99.99
2018-01-07T05:46:33.383Z,99.99
2018-01-07T05:47:33.482Z,99.99
2018-01-07T05:48:33.295Z,99.99
2018-01-07T05:49:34.892Z,99.99
2018-01-07T05:50:34.188Z,99.99
2018-01-07T05:51:34.330Z,99.99
2018-01-07T05:52:33.106Z,99.99
2018-01-07T05:53:32.875Z,99.99
2018-01-07T05:54:32.970Z,99.99
2018-01-07T05:55:32.768Z,99.99
2018-01-07T05:56:32.790Z,99.99
2018-01-07T05:57:32.679Z,99.99
2018-01-07T05:58:32.715Z,99.99
2018-01-07T05:59:32.750Z,99.99
2018-01-07T06:00:32.746Z,99.99
2018-01-07T06:01:32.663Z,99.99
2018-01-07T06:02:32.655Z,99.99
2018-01-07T06:03:32.611Z,99.99
2018-01-07T06:04:32.588Z,99.99
2018-01-07T06:05:32.480Z,99.99
2018-01-07T06:06:32.595Z,99.99
2018-01-07T06:07:32.491Z,99.99
2018-01-07T06:08:32.530Z,99.99
2018-01-07T06:09:32.520Z,99.99
2018-01-07T06:10:32.558Z,99.99
2018-01-07T06:11:32.436Z,99.99
2018-01-07T06:12:32.395Z,99.99
2018-01-07T06:13:32.396Z,99.99
2018-01-07T06:14:32.384Z,99.99
2018-01-07T06:15:32.389Z,99.99
2018-01-07T06:16:32.345Z,99.99
2018-01-07T06:17:32.264Z,99.99
2018-01-07T06:18:32.228Z,99.99
2018-01-07T06:19:32.330Z,99.99
2018-01-07T06:20:32.179Z,99.99
2018-01-07T06:21:32.156Z,99.99
2018-01-07T07:59:28.353Z,99.99
2018-01-07T08:09:26.556Z,99.99
2018-01-07T08:10:26.164Z,99.99
2018-01-07T08:11:25.099Z,99.99
2018-01-07T08:12:24.979Z,99.99
2018-01-07T08:13:24.752Z,99.99
2018-01-07T08:14:25.440Z,99.99
2018-01-07T08:15:24.948Z,99.99
2018-01-07T08:37:39.829Z,99.99
2018-01-07T08:40:45.158Z,99.99
2018-01-07T08:41:45.937Z,99.99
2018-01-07T08:42:45.097Z,99.99
2018-01-07T08:43:45.117Z,99.99
2018-01-07T08:46:36.476Z,99.99
2018-01-07T08:47:35.462Z,99.99
2018-01-07T08:48:36.450Z,99.99
2018-01-07T08:49:34.782Z,99.99
2018-01-07T08:50:35.430Z,99.99
2018-01-07T08:53:27.841Z,99.99
2018-01-07T08:54:24.883Z,99.99
2018-01-07T08:55:24.838Z,99.99
2018-01-07T08:56:25.354Z,99.99
2018-01-07T08:57:24.757Z,99.99
2018-01-07T08:58:25.556Z,99.99
2018-01-07T08:59:24.734Z,99.99
2018-01-07T09:00:24.976Z,99.99
2018-01-07T09:01:24.863Z,99.99
2018-01-07T09:02:24.576Z,99.99
2018-01-07T09:03:25.059Z,99.99
2018-01-07T09:06:57.953Z,99.99
2018-01-07T09:07:58.482Z,99.99
2018-01-07T09:08:58.694Z,99.99
2018-01-07T09:09:58.428Z,99.99
2018-01-07T09:10:58.378Z,99.99
2018-01-07T09:11:59.189Z,99.77
2018-01-07T09:12:59.149Z,99.99
2018-01-07T09:13:58.648Z,99.96
2018-01-07T09:14:58.692Z,99.99
2018-01-07T09:15:58.666Z,99.99
2018-01-07T09:16:58.281Z,99.99
2018-01-07T09:17:58.230Z,99.99
2018-01-07T09:18:58.650Z,99.99
2018-01-07T09:19:58.635Z,99.77
2018-01-07T09:20:57.620Z,99.96
2018-01-07T09:22:01.082Z,99.99
2018-01-07T09:30:08.823Z,99.86
2018-01-07T09:31:09.614Z,99.67
2018-01-07T09:32:09.897Z,99.77
2018-01-07T09:36:55.747Z,98.72
2018-01-07T09:37:07.366Z,98.91
2018-01-07T09:38:12.618Z,99.39
2018-01-07T09:40:06.972Z,99.77
2018-01-07T10:17:24.908Z,98.54
2018-01-07T10:18:25.128Z,98.16
2018-01-07T10:20:12.522Z,98.82
2018-01-07T10:24:11.757Z,99.10
2018-01-07T10:25:11.733Z,99.10
2018-01-07T10:26:11.037Z,98.16
2018-01-07T10:27:11.174Z,98.44
2018-01-07T10:28:11.653Z,98.25
2018-01-07T10:29:11.593Z,97.30
2018-01-07T10:30:11.124Z,97.40
2018-01-07T10:31:11.067Z,98.16
2018-01-07T10:32:12.093Z,98.35
2018-01-07T10:33:11.028Z,99.29
2018-01-07T10:34:11.245Z,99.58
2018-01-07T10:35:11.014Z,99.39
2018-01-07T10:36:10.919Z,99.20
2018-01-07T10:37:10.412Z,99.39
2018-01-07T10:38:10.400Z,99.20
2018-01-07T10:39:10.917Z,98.54
2018-01-07T10:40:10.316Z,98.54
2018-01-07T10:41:09.916Z,98.82
2018-01-07T10:42:09.908Z,98.16
2018-01-07T10:43:09.875Z,97.40
2018-01-07T10:44:09.852Z,98.16
2018-01-07T10:45:09.772Z,98.54
2018-01-07T10:46:09.753Z,98.54
2018-01-07T10:47:09.734Z,98.82
2018-01-07T10:48:09.766Z,99.39
2018-01-07T10:49:09.702Z,99.48
2018-01-07T10:50:09.698Z,99.10
2018-01-07T10:51:11.469Z,99.29
2018-01-07T10:52:09.688Z,99.29
2018-01-07T10:53:09.673Z,98.91
2018-01-07T10:54:09.619Z,99.01
2018-01-07T10:55:09.599Z,98.82
2018-01-07T10:56:09.544Z,99.48
2018-01-07T10:57:09.565Z,99.58
2018-01-07T10:58:09.540Z,99.39
2018-01-07T10:59:09.499Z,98.91
2018-01-07T11:00:09.463Z,99.29
2018-01-07T11:01:09.401Z,99.29
2018-01-07T11:02:09.411Z,98.91
2018-01-07T11:03:09.455Z,98.72
2018-01-07T11:04:09.546Z,98.91
2018-01-07T11:05:09.471Z,98.72
2018-01-07T11:06:09.348Z,98.63
2018-01-07T11:07:09.313Z,98.44
2018-01-07T11:08:09.240Z,98.44
2018-01-07T11:09:09.275Z,98.54
2018-01-07T11:10:09.217Z,99.58
2018-01-07T11:11:09.211Z,99.48
2018-01-07T11:12:09.206Z,99.20
2018-01-07T11:13:09.166Z,99.10
2018-01-07T11:14:09.183Z,99.58
2018-01-07T11:15:09.105Z,99.48
2018-01-07T11:16:09.134Z,99.20
2018-01-07T11:17:09.065Z,99.10
2018-01-07T11:18:09.099Z,99.39
2018-01-07T11:19:08.978Z,99.29
2018-01-07T11:20:09.008Z,98.63
2018-01-07T11:21:08.981Z,98.91
2018-01-07T11:22:08.948Z,98.44
2018-01-07T11:23:08.933Z,97.97
2018-01-07T11:24:08.958Z,98.44
2018-01-07T11:25:09.377Z,98.44
2018-01-07T11:26:08.958Z,98.35
2018-01-07T11:27:08.827Z,97.87
2018-01-07T11:28:08.777Z,97.49
2018-01-07T11:29:08.761Z,98.06
2018-01-07T11:30:08.798Z,98.54
2018-01-07T11:31:08.727Z,98.35
2018-01-07T11:32:08.715Z,97.49
2018-01-07T11:33:08.720Z,97.11
2018-01-07T11:34:08.688Z,97.30
2018-01-07T11:35:08.647Z,97.97
2018-01-07T11:36:09.362Z,98.06
2018-01-07T11:37:08.601Z,99.10
2018-01-07T11:38:08.571Z,98.54
2018-01-07T11:39:08.544Z,98.91
2018-01-07T11:40:08.553Z,99.58
2018-01-07T11:41:08.489Z,99.29
2018-01-07T11:42:08.468Z,99.29
2018-01-07T11:43:08.557Z,99.20
2018-01-07T11:44:08.404Z,99.96
2018-01-07T11:45:08.426Z,99.99
2018-01-07T11:46:08.407Z,99.48
2018-01-07T11:47:08.363Z,99.39
2018-01-07T11:48:08.396Z,99.20
2018-01-07T11:49:08.339Z,98.91
2018-01-07T11:50:08.262Z,98.91
2018-01-07T11:51:08.336Z,99.48
2018-01-07T11:52:08.218Z,99.48
2018-01-07T11:53:08.227Z,99.77
2018-01-07T11:54:08.202Z,99.39
2018-01-07T11:55:08.855Z,99.48
2018-01-07T11:56:08.168Z,99.01
2018-01-07T11:57:08.145Z,99.10
2018-01-07T11:58:08.090Z,99.39
2018-01-07T11:59:08.060Z,98.54
2018-01-07T12:00:08.076Z,99.01
2018-01-07T12:01:08.012Z,98.91
2018-01-07T12:02:08.199Z,99.48
2018-01-07T12:03:08.889Z,98.91
2018-01-07T12:04:07.996Z,99.29
2018-01-07T12:05:07.950Z,99.96
2018-01-07T12:06:07.905Z,99.67
2018-01-07T12:07:07.893Z,99.48
2018-01-07T12:08:07.867Z,99.39
2018-01-07T12:09:07.904Z,98.91
2018-01-07T12:10:07.815Z,99.48
2018-01-07T12:11:07.804Z,99.96
2018-01-07T12:12:07.785Z,99.99
2018-01-07T12:13:07.825Z,99.99
2018-01-07T12:14:07.748Z,99.99
2018-01-07T12:15:07.692Z,99.48
2018-01-07T12:16:07.679Z,99.99
2018-01-07T12:44:13.343Z,99.48
2018-01-07T12:45:11.870Z,99.99
2018-01-07T12:46:11.955Z,99.77
2018-01-07T12:47:12.342Z,99.29
2018-01-07T12:48:12.019Z,98.91
2018-01-07T12:49:11.504Z,98.44
2018-01-07T12:50:11.500Z,99.01
2018-01-07T12:51:12.024Z,99.10
2018-01-07T12:52:12.658Z,99.58
2018-01-07T12:53:11.913Z,99.99
2018-01-07T12:54:11.780Z,99.99
2018-01-07T12:55:10.869Z,99.99
2018-01-07T12:56:10.902Z,99.99
2018-01-07T12:57:10.827Z,99.99
2018-01-07T12:58:10.860Z,99.96
2018-01-07T12:59:10.832Z,99.99
2018-01-07T13:00:10.861Z,99.99
2018-01-07T13:01:10.836Z,99.99
2018-01-07T13:02:10.723Z,99.86
2018-01-07T13:03:10.759Z,99.99
2018-01-07T13:04:10.860Z,99.96
2018-01-07T13:05:10.781Z,99.67
2018-01-07T13:06:10.661Z,99.99
2018-01-07T13:07:10.638Z,99.99
2018-01-07T13:08:10.633Z,99.99
2018-01-07T13:09:10.591Z,99.99
2018-01-07T13:10:10.556Z,99.99
2018-01-07T13:11:10.550Z,99.99
2018-01-07T13:12:10.536Z,99.99
2018-01-07T13:13:10.508Z,99.99
2018-01-07T13:14:12.188Z,99.96
2018-01-07T13:15:10.424Z,99.86
2018-01-07T13:16:10.482Z,99.71
2018-01-07T13:17:10.474Z,99.52
2018-01-07T13:18:10.399Z,99.90
2018-01-07T13:19:10.380Z,99.99
2018-01-07T13:20:10.315Z,99.99
2018-01-07T13:21:10.294Z,99.99
2018-01-07T13:22:10.296Z,99.99
2018-01-07T13:23:10.283Z,99.99
2018-01-07T13:24:10.263Z,99.99
2018-01-07T13:25:10.240Z,99.99
2018-01-07T13:26:10.250Z,99.99
2018-01-07T13:27:10.279Z,99.99
2018-01-07T13:28:10.143Z,99.99
2018-01-07T13:29:10.153Z,99.99
2018-01-07T13:30:10.066Z,99.99
2018-01-07T13:31:10.098Z,99.99
2018-01-07T13:32:10.237Z,99.99
2018-01-07T13:33:10.132Z,99.99
2018-01-07T13:34:10.012Z,99.99
2018-01-07T13:35:10.035Z,99.99
2018-01-07T13:36:09.932Z,99.99
2018-01-07T13:37:09.911Z,99.99
2018-01-07T13:38:09.871Z,99.99
2018-01-07T13:39:09.853Z,99.99
2018-01-07T13:40:09.851Z,99.99
2018-01-07T13:41:09.842Z,99.99
2018-01-07T13:42:09.788Z,99.99
2018-01-07T13:43:09.914Z,99.99
2018-01-07T13:44:09.784Z,99.99
2018-01-07T13:45:10.382Z,99.99
2018-01-07T13:46:09.725Z,99.99
2018-01-07T13:47:09.773Z,99.99
2018-01-07T13:48:09.685Z,99.99
2018-01-07T13:49:09.642Z,99.99
2018-01-07T13:50:09.592Z,99.99
2018-01-07T13:51:09.611Z,99.99
2018-01-07T13:52:09.586Z,99.99
2018-01-07T13:53:09.534Z,99.99
2018-01-07T13:54:09.568Z,99.99
2018-01-07T13:55:09.518Z,99.99
2018-01-07T13:56:09.498Z,99.99
2018-01-07T13:57:09.441Z,99.99
2018-01-07T13:58:09.449Z,99.99
2018-01-07T13:59:09.400Z,99.99
2018-01-07T14:00:09.413Z,99.99
2018-01-07T14:01:09.348Z,99.99
2018-01-07T14:02:09.392Z,99.99
2018-01-07T14:03:09.301Z,99.99
2018-01-07T14:04:09.279Z,99.99
2018-01-07T14:05:09.263Z,99.99
2018-01-07T14:06:09.250Z,99.99
2018-01-07T14:07:09.272Z,99.90
2018-01-07T14:08:09.270Z,99.71
2018-01-07T14:09:09.156Z,99.99
2018-01-07T14:10:09.129Z,99.99
2018-01-07T14:11:09.102Z,99.99
2018-01-07T14:12:09.113Z,99.99
2018-01-07T14:13:09.103Z,99.99
2018-01-07T14:14:09.044Z,99.99
2018-01-07T14:15:09.070Z,99.99
2018-01-07T14:16:09.016Z,99.99
2018-01-07T14:17:08.983Z,99.99
2018-01-07T14:18:08.984Z,99.99
2018-01-07T14:19:08.981Z,99.99
2018-01-07T14:20:08.915Z,99.99
2018-01-07T14:21:08.888Z,99.99
2018-01-07T14:29:12.566Z,99.99
2018-01-07T14:30:03.157Z,99.99
2018-01-07T14:31:02.457Z,99.99
2018-01-07T14:32:03.054Z,99.99
2018-01-07T14:33:02.521Z,99.99
2018-01-07T14:34:02.521Z,99.99
2018-01-07T14:35:03.500Z,99.99
2018-01-07T14:36:02.985Z,99.99
2018-01-07T14:37:03.467Z,99.99
2018-01-07T14:38:03.110Z,99.99
2018-01-07T14:39:04.129Z,99.99
2018-01-07T14:40:03.416Z,99.99
2018-01-07T14:41:02.308Z,99.99
2018-01-07T14:42:02.259Z,99.99
2018-01-07T14:43:02.237Z,99.99
2018-01-07T14:44:02.798Z,99.99
2018-01-07T14:45:05.894Z,99.99
2018-01-07T14:46:02.157Z,99.99
2018-01-07T14:47:02.361Z,99.99
2018-01-07T14:48:02.182Z,99.99
2018-01-07T14:49:02.162Z,99.99
2018-01-07T14:50:02.664Z,99.99
2018-01-07T14:51:02.659Z,99.99
2018-01-07T14:52:02.538Z,99.99
2018-01-07T14:53:02.059Z,99.99
2018-01-07T14:54:05.805Z,99.99
2018-01-07T14:55:02.536Z,99.99
2018-01-07T14:56:02.648Z,99.99
2018-01-07T14:57:01.911Z,99.99
2018-01-07T14:58:02.473Z,99.99
2018-01-07T14:59:02.429Z,99.99
2018-01-07T15:00:02.126Z,99.99
2018-01-07T15:01:01.822Z,99.99
2018-01-07T15:02:01.824Z,99.99
2018-01-07T15:03:01.837Z,99.99
2018-01-07T15:04:01.791Z,99.99
2018-01-07T15:05:01.819Z,99.99
2018-01-07T15:06:01.763Z,99.99
2018-01-07T15:07:02.209Z,99.99
2018-01-07T15:08:01.694Z,99.99
2018-01-07T15:09:01.661Z,99.99
2018-01-07T15:10:01.850Z,99.99
2018-01-07T15:11:02.937Z,99.99
2018-01-07T15:12:02.631Z,99.99
2018-01-07T15:13:01.571Z,99.99
2018-01-07T15:14:01.696Z,99.99
2018-01-07T15:15:01.245Z,99.99
2018-01-07T15:16:01.220Z,99.99
2018-01-07T15:17:01.030Z,99.99
2018-01-07T15:18:01.026Z,99.99
2018-01-07T15:19:00.969Z,99.99
2018-01-07T15:20:00.959Z,99.99
2018-01-07T15:21:00.951Z,99.99
2018-01-07T15:22:00.884Z,99.99
2018-01-07T15:23:00.891Z,99.99
2018-01-07T15:24:00.918Z,99.99
2018-01-07T15:25:00.862Z,99.99
2018-01-07T15:26:00.801Z,99.99
2018-01-07T15:27:00.816Z,99.99
2018-01-07T15:28:00.768Z,99.99
2018-01-07T15:29:00.794Z,99.99
2018-01-07T15:30:00.688Z,99.99
2018-01-07T15:31:00.716Z,99.99
2018-01-07T15:32:00.736Z,99.99
2018-01-07T15:33:00.694Z,99.99
2018-01-07T15:34:00.719Z,99.99
2018-01-07T15:35:00.593Z,99.99
2018-01-07T15:36:00.547Z,99.99
2018-01-07T15:37:00.572Z,99.99
2018-01-07T15:38:00.785Z,99.99
2018-01-07T15:39:00.526Z,99.99
2018-01-07T15:40:00.496Z,99.99
2018-01-07T15:41:01.167Z,99.99
2018-01-07T15:42:00.434Z,99.99
2018-01-07T15:43:01.320Z,99.99
2018-01-07T15:44:00.426Z,99.99
2018-01-07T15:45:00.417Z,99.99
2018-01-07T15:46:00.352Z,99.99
2018-01-07T15:47:00.303Z,99.99
2018-01-07T15:48:00.271Z,99.99
2018-01-07T15:49:00.304Z,99.99
2018-01-07T15:50:00.235Z,99.99
2018-01-07T15:51:00.257Z,99.99
2018-01-07T15:52:00.411Z,99.99
2018-01-07T15:53:00.169Z,99.99
2018-01-07T15:54:00.155Z,99.99
2018-01-07T15:55:00.098Z,99.99
2018-01-07T15:56:00.152Z,99.99
2018-01-07T15:57:00.076Z,99.99
2018-01-07T15:58:00.051Z,99.99
2018-01-07T15:59:00.027Z,99.99
2018-01-07T16:00:00.063Z,99.99
2018-01-07T16:01:00.454Z,99.99
2018-01-07T16:01:59.928Z,99.99
2018-01-07T16:02:59.938Z,99.99
2018-01-07T16:03:59.916Z,99.99
2018-01-07T16:04:59.868Z,99.99
2018-01-07T16:05:59.839Z,99.99
2018-01-07T16:07:00.224Z,99.99
2018-01-07T16:07:59.941Z,99.99
2018-01-07T16:17:14.779Z,99.99
2018-01-07T16:18:14.299Z,99.99
2018-01-07T16:19:14.864Z,99.99
2018-01-07T16:26:25.400Z,99.99
2018-01-07T16:27:28.628Z,99.99
2018-01-07T18:05:17.395Z,99.99
2018-01-07T18:07:13.989Z,99.99
2018-01-07T18:09:50.265Z,99.99
2018-01-07T18:10:46.121Z,99.99
2018-01-07T18:11:43.947Z,99.99
2018-01-07T18:12:42.534Z,99.99
2018-01-07T18:13:43.868Z,99.99
2018-01-07T18:14:42.807Z,99.99
2018-01-07T18:15:43.267Z,99.99
2018-01-07T18:16:42.384Z,99.99
2018-01-07T18:17:43.467Z,99.99
2018-01-07T18:18:44.521Z,99.99
2018-01-07T18:19:46.958Z,99.99
2018-01-07T18:20:45.158Z,99.99
2018-01-07T18:21:45.109Z,99.99
2018-01-07T18:22:45.663Z,99.99
2018-01-07T18:23:43.344Z,99.99
2018-01-07T18:24:44.664Z,99.99
2018-01-07T18:25:41.942Z,99.99
2018-01-07T18:26:41.606Z,99.99
2018-01-07T18:27:41.627Z,99.99
2018-01-07T18:28:41.440Z,99.99
2018-01-07T18:29:41.558Z,99.99
2018-01-07T18:30:41.544Z,99.99
2018-01-07T18:31:41.399Z,99.99
2018-01-07T18:32:41.371Z,99.99
2018-01-07T18:33:41.410Z,99.99
2018-01-07T18:34:41.456Z,99.99
2018-01-07T18:35:41.586Z,99.99
2018-01-07T18:36:41.854Z,99.99
2018-01-07T18:37:41.374Z,99.99
2018-01-07T18:38:41.382Z,99.99
2018-01-07T18:39:41.311Z,99.99
2018-01-07T18:40:41.243Z,99.99
2018-01-07T18:41:46.127Z,99.99
2018-01-07T18:42:41.378Z,99.99
2018-01-07T18:43:41.266Z,99.99
2018-01-07T18:44:41.094Z,99.99
2018-01-07T18:45:41.112Z,99.99
2018-01-07T18:46:41.108Z,99.99
2018-01-07T18:50:03.664Z,99.99
2018-01-07T18:51:01.724Z,99.99
2018-01-07T18:52:54.711Z,99.99
2018-01-07T18:53:54.956Z,99.99
2018-01-07T18:54:54.720Z,99.99
2018-01-07T18:55:54.077Z,99.99
2018-01-07T18:56:54.020Z,99.99
2018-01-07T18:57:54.048Z,99.99
2018-01-07T18:58:54.010Z,99.99
2018-01-07T18:59:54.151Z,99.99
2018-01-07T19:00:54.758Z,99.99
2018-01-07T19:01:53.905Z,99.99
2018-01-07T19:02:54.868Z,99.99
2018-01-07T19:03:53.844Z,99.99
2018-01-07T19:04:53.873Z,99.99
2018-01-07T19:05:53.839Z,99.99
2018-01-07T19:06:53.861Z,99.99
2018-01-07T19:07:54.688Z,99.99
2018-01-07T19:08:53.722Z,99.99
2018-01-07T19:09:53.716Z,99.99
2018-01-07T19:10:53.723Z,99.99
2018-01-07T19:11:53.708Z,99.99
2018-01-07T19:12:53.671Z,99.99
2018-01-07T19:13:54.345Z,99.99
2018-01-07T19:14:53.629Z,99.99
2018-01-07T19:15:53.603Z,99.99
2018-01-07T19:16:53.543Z,99.99
2018-01-07T19:17:53.527Z,99.99
2018-01-07T19:18:53.560Z,99.99
2018-01-07T19:19:53.584Z,99.99
2018-01-07T19:20:53.494Z,99.99
2018-01-07T19:21:53.428Z,99.99
2018-01-07T19:22:53.424Z,99.99
2018-01-07T19:23:53.411Z,99.99
2018-01-07T19:24:53.393Z,99.99
2018-01-07T19:25:53.355Z,99.99
2018-01-07T19:26:53.347Z,99.99
2018-01-07T19:27:53.312Z,99.99
2018-01-07T19:28:53.340Z,99.99
2018-01-07T19:29:53.236Z,99.99
2018-01-07T19:30:53.267Z,99.99
2018-01-07T19:31:53.324Z,99.99
2018-01-07T19:32:53.205Z,99.99
2018-01-07T19:33:53.162Z,99.99
2018-01-07T19:34:53.211Z,99.99
2018-01-07T19:35:53.174Z,99.99
2018-01-07T19:36:53.210Z,99.99
2018-01-07T19:37:53.092Z,99.99
2018-01-07T19:38:53.061Z,99.99
2018-01-07T19:39:53.128Z,99.99
2018-01-07T19:40:52.995Z,99.99
2018-01-07T19:41:53.648Z,99.99
2018-01-07T19:42:52.918Z,99.99
2018-01-07T19:43:52.998Z,99.99
2018-01-07T19:44:52.899Z,99.99
2018-01-07T19:45:52.871Z,99.99
2018-01-07T19:46:52.863Z,99.99
2018-01-07T19:47:52.875Z,99.99
2018-01-07T19:48:52.814Z,99.99
2018-01-07T19:49:52.782Z,99.99
2018-01-07T19:50:52.847Z,99.99
2018-01-07T19:51:53.742Z,99.99
2018-01-07T19:52:52.714Z,99.99
2018-01-07T19:53:52.706Z,99.99
2018-01-07T19:54:52.686Z,99.99
2018-01-07T19:55:52.638Z,99.99
2018-01-07T19:56:52.634Z,99.99
2018-01-07T19:57:52.622Z,99.99
2018-01-07T19:58:52.606Z,99.99
2018-01-07T19:59:52.549Z,99.99
2018-01-07T20:00:52.497Z,99.99
2018-01-07T20:01:52.470Z,99.99
2018-01-07T20:02:52.472Z,99.99
2018-01-07T20:03:52.452Z,99.99
2018-01-07T20:04:52.445Z,99.99
2018-01-07T20:05:52.431Z,99.99
2018-01-07T20:06:52.385Z,99.99
2018-01-07T20:07:52.323Z,99.99
2018-01-07T20:08:52.362Z,99.99
2018-01-07T20:09:52.314Z,99.99
2018-01-07T20:10:52.250Z,99.99
2018-01-07T20:11:52.236Z,99.99
2018-01-07T20:12:52.256Z,99.99
2018-01-07T20:13:52.219Z,99.99
2018-01-07T20:14:52.214Z,99.99
2018-01-07T20:15:52.132Z,99.99
2018-01-07T20:16:52.157Z,99.99
2018-01-07T20:17:52.299Z,99.99
2018-01-07T20:18:52.103Z,99.99
2018-01-07T20:19:52.084Z,99.99
2018-01-07T20:20:52.033Z,99.99
2018-01-07T20:21:52.035Z,99.99
2018-01-07T20:22:52.031Z,99.99
2018-01-07T20:23:51.993Z,99.99
2018-01-07T20:24:52.034Z,99.99
2018-01-07T20:25:51.899Z,99.99
2018-01-07T20:26:52.000Z,99.99
2018-01-07T20:27:51.866Z,99.99
2018-01-07T20:28:51.820Z,99.99
2018-01-07T20:29:51.812Z,99.99
2018-01-07T20:30:51.820Z,99.99
2018-01-07T20:31:51.743Z,99.99
2018-01-07T20:32:51.775Z,99.99
2018-01-07T20:33:51.807Z,99.99
2018-01-07T20:34:51.748Z,99.99
2018-01-07T20:35:55.211Z,99.99
2018-01-07T20:38:36.013Z,99.99
2018-01-07T20:41:19.634Z,99.99
2018-01-07T20:43:41.722Z,99.99
2018-01-07T20:44:41.654Z,99.99
2018-01-07T20:47:09.804Z,99.99
2018-01-07T20:48:04.755Z,99.99
2018-01-07T20:50:04.026Z,99.99
2018-01-07T20:51:04.388Z,99.99
2018-01-07T20:53:04.885Z,99.99
2018-01-07T20:54:07.056Z,99.99
2018-01-07T20:54:57.672Z,99.99
2018-01-07T20:56:01.102Z,99.99
2018-01-07T20:56:59.689Z,99.99
2018-01-07T20:57:56.698Z,99.99
2018-01-07T20:58:55.675Z,99.99
2018-01-07T20:59:55.582Z,99.99
2018-01-07T21:00:55.588Z,99.99
2018-01-07T21:01:55.635Z,99.99
2018-01-07T21:02:56.245Z,99.99
2018-01-07T21:03:56.048Z,99.99
2018-01-07T21:04:55.929Z,99.99
2018-01-07T21:05:55.332Z,99.99
2018-01-07T21:06:58.974Z,99.99
2018-01-07T21:07:58.305Z,99.99
2018-01-07T21:08:59.084Z,99.99
2018-01-07T21:09:59.329Z,99.99
2018-01-07T21:10:59.788Z,99.99
2018-01-07T21:11:54.656Z,99.99
2018-01-07T21:12:54.542Z,99.99
2018-01-07T21:13:54.387Z,99.99
2018-01-07T21:14:54.311Z,99.99
2018-01-07T21:15:54.267Z,99.99
2018-01-07T21:16:54.273Z,99.99
2018-01-07T21:17:54.211Z,99.99
2018-01-07T21:18:54.202Z,99.99
2018-01-07T21:19:54.206Z,99.99
2018-01-07T21:20:54.176Z,99.99
2018-01-07T21:21:54.196Z,99.99
2018-01-07T21:22:54.172Z,99.99
2018-01-07T21:23:54.912Z,99.99
2018-01-07T21:24:54.069Z,99.99
2018-01-07T21:25:54.138Z,99.99
2018-01-07T21:26:54.013Z,99.99
2018-01-07T21:27:54.071Z,99.99
2018-01-07T21:28:53.993Z,99.99
2018-01-07T21:29:53.976Z,99.99
2018-01-07T21:30:53.904Z,99.99
2018-01-07T21:31:53.880Z,99.99
2018-01-07T21:32:53.966Z,99.99
2018-01-07T21:33:53.930Z,99.99
2018-01-07T21:34:54.399Z,99.99
2018-01-07T21:35:53.829Z,99.99
2018-01-07T21:36:53.869Z,99.99
2018-01-07T21:37:53.847Z,99.99
2018-01-07T21:38:53.742Z,99.99
2018-01-07T21:39:53.716Z,99.99
2018-01-07T21:40:53.774Z,99.99
2018-01-07T21:41:53.615Z,99.99
2018-01-07T21:42:53.582Z,99.99
2018-01-07T21:43:53.646Z,99.99
2018-01-07T21:44:53.725Z,99.99
2018-01-07T21:45:54.508Z,99.99
2018-01-07T21:46:53.590Z,99.99
2018-01-07T21:47:54.504Z,99.99
2018-01-07T21:48:56.098Z,99.99
2018-01-07T21:49:53.546Z,99.99
2018-01-07T21:50:53.565Z,99.99
2018-01-07T21:51:54.216Z,99.99
2018-01-07T21:52:57.115Z,99.99
2018-01-07T21:53:53.403Z,99.99
2018-01-07T21:54:53.363Z,99.99
2018-01-07T21:55:53.306Z,99.99
2018-01-07T21:56:53.912Z,99.99
2018-01-07T21:57:53.345Z,99.99
2018-01-07T21:58:53.260Z,99.99
2018-01-07T21:59:53.335Z,99.99
2018-01-07T22:00:53.271Z,99.99
2018-01-07T22:01:57.318Z,99.99
2018-01-07T22:02:55.818Z,99.99
2018-01-07T22:03:53.147Z,99.99
2018-01-07T22:05:57.250Z,99.99
2018-01-07T22:06:53.147Z,99.99
2018-01-07T22:07:53.879Z,99.99
2018-01-07T22:08:53.101Z,99.99
2018-01-07T22:09:53.052Z,99.99
2018-01-07T22:10:52.993Z,99.99
2018-01-07T22:11:52.959Z,99.99
2018-01-07T22:12:52.943Z,99.99
2018-01-07T22:13:52.898Z,99.99
2018-01-07T22:14:52.912Z,99.99
2018-01-07T22:15:52.832Z,99.99
2018-01-07T22:16:52.869Z,99.99
2018-01-07T22:17:52.890Z,99.99
2018-01-07T22:18:53.218Z,99.99
2018-01-07T22:19:52.772Z,99.99
2018-01-07T22:20:52.954Z,99.99
2018-01-07T22:21:52.767Z,99.99
2018-01-07T22:22:52.656Z,99.99
2018-01-07T22:23:52.615Z,99.99
2018-01-07T22:24:52.679Z,99.99
2018-01-07T22:25:52.722Z,99.99
2018-01-07T22:26:52.669Z,99.99
2018-01-07T22:27:52.638Z,99.99
2018-01-07T22:28:52.575Z,99.99
2018-01-07T22:29:52.560Z,99.99
2018-01-07T22:30:52.502Z,99.99
2018-01-07T22:31:52.487Z,99.99
2018-01-07T22:32:52.497Z,99.99
2018-01-07T22:33:52.459Z,99.99
2018-01-07T22:34:52.401Z,99.99
2018-01-07T22:35:52.538Z,99.99
2018-01-07T22:36:52.340Z,99.99
2018-01-07T22:37:52.352Z,99.99
2018-01-07T22:38:52.402Z,99.99
2018-01-07T22:39:52.266Z,99.99
2018-01-07T22:40:52.289Z,99.99
2018-01-07T22:41:52.223Z,99.99
2018-01-07T22:42:52.244Z,99.99
2018-01-07T22:43:52.280Z,99.99
2018-01-07T22:44:52.122Z,99.99
2018-01-07T22:45:52.133Z,99.99
2018-01-07T22:46:52.194Z,99.99
2018-01-07T22:47:52.109Z,99.99
2018-01-07T22:48:52.047Z,99.99
2018-01-07T22:49:52.012Z,99.99
2018-01-07T22:50:52.056Z,99.99
2018-01-07T22:51:52.051Z,99.99
2018-01-07T22:52:52.007Z,99.99
2018-01-07T22:53:51.945Z,99.99
2018-01-07T22:54:51.978Z,99.99
2018-01-07T22:55:51.975Z,99.99
2018-01-07T22:56:51.962Z,99.99
2018-01-07T22:57:51.869Z,99.99
2018-01-07T22:58:51.823Z,99.99
2018-01-07T22:59:51.868Z,99.99
2018-01-07T23:00:51.890Z,99.99
2018-01-07T23:01:51.815Z,99.99
2018-01-07T23:02:51.784Z,99.99
2018-01-07T23:03:51.754Z,99.99
2018-01-07T23:04:51.805Z,99.99
2018-01-07T23:05:51.711Z,99.99
2018-01-07T23:06:52.342Z,99.99
2018-01-07T23:07:51.674Z,99.99
2018-01-07T23:08:51.604Z,99.99
2018-01-07T23:09:51.557Z,99.99
2018-01-07T23:10:51.559Z,99.99
2018-01-07T23:11:51.609Z,99.99
2018-01-07T23:12:51.505Z,99.99
2018-01-07T23:13:51.528Z,99.99
2018-01-07T23:14:51.495Z,99.99
2018-01-07T23:15:51.442Z,99.99
2018-01-07T23:16:51.549Z,99.99
2018-01-07T23:17:52.494Z,99.99
2018-01-07T23:18:51.413Z,99.99
2018-01-07T23:19:51.304Z,99.99
2018-01-07T23:20:51.334Z,99.99
2018-01-07T23:21:51.398Z,99.99
2018-01-07T23:22:51.297Z,99.99
2018-01-07T23:23:51.299Z,99.99
2018-01-07T23:24:51.208Z,99.99
2018-01-07T23:25:51.323Z,99.99
2018-01-07T23:26:51.138Z,99.99
2018-01-07T23:27:51.150Z,99.99
2018-01-07T23:28:51.213Z,99.99
2018-01-07T23:29:51.164Z,99.99
2018-01-07T23:30:51.064Z,99.99
2018-01-07T23:31:51.025Z,99.99
2018-01-07T23:32:51.066Z,99.99
2018-01-07T23:33:51.177Z,99.99
2018-01-07T23:34:50.955Z,99.99
2018-01-07T23:35:51.110Z,99.99
2018-01-07T23:36:51.020Z,99.99
2018-01-07T23:37:50.901Z,99.99
2018-01-07T23:38:50.921Z,99.99
2018-01-07T23:39:50.886Z,99.99
2018-01-07T23:40:50.877Z,99.99
2018-01-07T23:41:50.839Z,99.99
2018-01-07T23:42:50.770Z,99.99
2018-01-07T23:43:50.800Z,99.99
2018-01-07T23:44:50.797Z,99.99
2018-01-07T23:45:50.793Z,99.99
2018-01-07T23:46:50.858Z,99.99
2018-01-07T23:47:50.682Z,99.99
2018-01-07T23:48:50.708Z,99.99
2018-01-07T23:49:50.658Z,99.99
2018-01-07T23:50:50.645Z,99.99
2018-01-07T23:51:50.626Z,99.99
2018-01-07T23:52:50.581Z,99.99
2018-01-07T23:53:50.596Z,99.99
2018-01-07T23:54:50.620Z,99.99
2018-01-07T23:55:50.514Z,99.99
2018-01-07T23:56:50.415Z,99.99
2018-01-07T23:57:50.449Z,99.99
2018-01-07T23:58:50.446Z,99.99
2018-01-07T23:59:50.376Z,99.99
